Terminal Aerodrome Forecast
Issued by NWS Fort Wayne, IN

Home | Current Version | Previous Version | Graphics & Text | Print | Product List | Glossary On
Versions: 1 2 3 4 5 6 7 8 9 10 11 12 13 14
000
FTUS43 KIWX 221100
TAFFWA
TAF
KFWA 221120Z 2212/2312 27012G20KT P6SM SCT015 BKN045
      TEMPO 2212/2214 BKN015
     FM221500 28019G30KT P6SM BKN050
     FM230000 27008KT P6SM SCT060=

USA.gov is the U.S. government's official web portal to all federal, state and local government web resources and services.